createdAt,value
2019-03-27T00:01:15.400Z,67.75
2019-03-27T00:03:46.734Z,67.44
2019-03-27T00:06:17.901Z,67.97
2019-03-27T00:08:49.019Z,67.86
2019-03-27T00:11:20.159Z,69.28
2019-03-27T00:13:51.539Z,69.06
2019-03-27T00:16:23.007Z,68.29
2019-03-27T00:18:54.190Z,68.51
2019-03-27T00:21:25.451Z,69.24
2019-03-27T00:23:56.590Z,69.95
2019-03-27T00:26:27.787Z,69.65
2019-03-27T00:28:58.891Z,69.83
2019-03-27T00:31:30.174Z,69.57
2019-03-27T00:34:01.337Z,69.36
2019-03-27T00:36:32.902Z,69.77
2019-03-27T00:39:04.878Z,70.10
2019-03-27T00:41:36.018Z,70.04
2019-03-27T00:44:08.382Z,71.62
2019-03-27T00:46:39.524Z,71.15
2019-03-27T00:49:10.633Z,71.41
2019-03-27T00:51:41.772Z,70.18
2019-03-27T00:54:12.903Z,70.46
2019-03-27T00:56:44.079Z,71.29
2019-03-27T00:59:15.197Z,71.17
2019-03-27T01:01:46.542Z,71.43
2019-03-27T01:04:17.778Z,72.59
2019-03-27T01:06:51.080Z,72.03
2019-03-27T01:09:22.639Z,73.38
2019-03-27T01:11:53.913Z,72.60
2019-03-27T01:14:25.032Z,72.48
2019-03-27T01:16:56.166Z,72.48
2019-03-27T01:19:27.535Z,73.36
2019-03-27T01:21:58.546Z,73.96
2019-03-27T01:24:29.741Z,73.97
2019-03-27T01:27:00.820Z,73.95
2019-03-27T01:29:31.981Z,73.51
2019-03-27T01:32:03.014Z,74.21
2019-03-27T01:34:34.090Z,74.37
2019-03-27T01:37:05.198Z,74.19
2019-03-27T01:39:37.471Z,73.77
2019-03-27T01:42:08.540Z,73.28
2019-03-27T01:44:39.867Z,74.02
2019-03-27T01:47:10.929Z,74.63
2019-03-27T01:49:41.977Z,74.60
2019-03-27T01:52:13.194Z,75.58
2019-03-27T01:54:44.230Z,75.58
2019-03-27T01:57:15.228Z,75.35
2019-03-27T01:59:46.436Z,76.54
2019-03-27T02:02:17.450Z,76.09
2019-03-27T02:04:48.533Z,75.95
2019-03-27T02:07:19.604Z,76.15
2019-03-27T02:09:50.710Z,75.93
2019-03-27T02:12:21.781Z,76.10
2019-03-27T02:14:52.840Z,76.28
2019-03-27T02:17:23.973Z,76.09
2019-03-27T02:19:55.161Z,75.84
2019-03-27T02:22:26.307Z,76.11
2019-03-27T02:24:57.420Z,75.88
2019-03-27T02:27:28.528Z,75.88
2019-03-27T02:29:59.697Z,76.19
2019-03-27T02:32:30.930Z,76.02
2019-03-27T02:35:02.112Z,76.13
2019-03-27T02:37:33.203Z,75.81
2019-03-27T02:40:06.360Z,75.56
2019-03-27T02:42:37.380Z,75.64
2019-03-27T02:45:08.712Z,75.48
2019-03-27T02:47:39.780Z,76.09
2019-03-27T02:50:10.929Z,75.66
2019-03-27T02:52:42.199Z,76.03
2019-03-27T02:55:13.381Z,75.90
2019-03-27T02:57:44.759Z,76.43
2019-03-27T03:00:16.200Z,75.98
2019-03-27T03:02:47.370Z,76.11
2019-03-27T03:05:18.582Z,77.04
2019-03-27T03:07:49.780Z,76.49
2019-03-27T03:10:21.093Z,76.45
2019-03-27T03:12:52.324Z,77.01
2019-03-27T03:15:23.802Z,77.00
2019-03-27T03:17:54.970Z,76.79
2019-03-27T03:20:26.157Z,76.69
2019-03-27T03:22:57.536Z,76.53
2019-03-27T03:25:28.573Z,76.26
2019-03-27T03:27:59.718Z,76.24
2019-03-27T03:30:30.939Z,76.28
2019-03-27T03:33:01.948Z,76.24
2019-03-27T03:35:33.146Z,76.43
2019-03-27T03:38:04.151Z,75.48
2019-03-27T03:40:35.350Z,75.09
2019-03-27T03:43:07.018Z,74.79
2019-03-27T03:45:38.423Z,74.52
2019-03-27T03:48:09.603Z,74.35
2019-03-27T03:50:42.324Z,74.35
2019-03-27T03:53:13.989Z,73.94
2019-03-27T03:55:45.379Z,72.92
2019-03-27T03:58:16.923Z,72.73
2019-03-27T04:00:48.144Z,71.65
2019-03-27T04:03:19.188Z,72.11
2019-03-27T04:05:50.415Z,71.25
2019-03-27T04:08:21.853Z,71.16
2019-03-27T04:10:53.961Z,70.16
2019-03-27T04:13:25.020Z,69.27
2019-03-27T04:15:56.140Z,67.12
2019-03-27T04:18:27.268Z,67.09
2019-03-27T04:20:58.306Z,66.23
2019-03-27T04:23:29.426Z,67.12
2019-03-27T04:26:09.542Z,66.01
2019-03-27T04:28:33.526Z,65.58
2019-03-27T04:31:04.901Z,65.98
2019-03-27T04:33:36.044Z,65.79
2019-03-27T04:36:07.136Z,65.15
2019-03-27T04:38:38.377Z,64.53
2019-03-27T04:41:09.519Z,64.85
2019-03-27T04:43:40.795Z,64.75
2019-03-27T04:46:11.978Z,63.58
2019-03-27T04:48:43.295Z,63.25
2019-03-27T04:51:14.383Z,62.59
2019-03-27T04:53:45.410Z,64.59
2019-03-27T04:56:16.611Z,64.12
2019-03-27T04:58:47.658Z,63.28
2019-03-27T05:01:18.701Z,62.29
2019-03-27T05:03:49.999Z,61.71
2019-03-27T05:06:21.115Z,59.95
2019-03-27T05:08:52.392Z,58.17
2019-03-27T05:11:25.018Z,56.31
2019-03-27T05:13:56.419Z,54.33
2019-03-27T05:16:27.686Z,56.07
2019-03-27T05:18:58.808Z,56.34
2019-03-27T05:21:29.955Z,55.95
2019-03-27T05:24:01.082Z,54.95
2019-03-27T05:26:32.413Z,55.39
2019-03-27T05:29:04.057Z,55.58
2019-03-27T05:31:36.012Z,54.74
2019-03-27T05:34:08.428Z,56.45
2019-03-27T05:36:39.571Z,55.40
2019-03-27T05:39:10.645Z,55.70
2019-03-27T05:41:41.754Z,56.22
2019-03-27T05:44:12.924Z,54.93
2019-03-27T05:46:44.159Z,52.10
2019-03-27T05:49:15.267Z,48.18
2019-03-27T05:51:46.539Z,44.51
2019-03-27T05:54:22.067Z,45.59
2019-03-27T05:57:05.632Z,47.90
2019-03-27T05:59:36.791Z,48.85
2019-03-27T06:02:07.949Z,51.78
2019-03-27T06:04:38.968Z,51.78
2019-03-27T06:07:10.709Z,51.30
2019-03-27T06:09:42.298Z,48.18
2019-03-27T06:12:13.669Z,47.87
2019-03-27T06:14:45.020Z,46.28
2019-03-27T06:17:16.184Z,48.93
2019-03-27T06:19:47.364Z,49.64
2019-03-27T06:22:19.806Z,50.07
2019-03-27T06:24:50.921Z,50.07
2019-03-27T06:27:23.289Z,50.41
2019-03-27T06:29:54.573Z,50.99
2019-03-27T06:32:25.922Z,50.14
2019-03-27T06:34:57.060Z,52.36
2019-03-27T06:37:28.289Z,48.60
2019-03-27T06:39:59.432Z,48.60
2019-03-27T06:42:30.671Z,48.18
2019-03-27T06:45:02.163Z,47.00
2019-03-27T06:47:33.375Z,45.28
2019-03-27T06:50:06.133Z,44.64
2019-03-27T06:52:37.373Z,44.64
2019-03-27T06:55:08.435Z,43.01
2019-03-27T06:57:40.659Z,43.87
2019-03-27T07:00:12.029Z,47.08
2019-03-27T07:02:44.404Z,45.54
2019-03-27T07:05:15.654Z,46.72
2019-03-27T07:07:46.934Z,45.60
2019-03-27T07:10:18.243Z,46.62
2019-03-27T07:12:51.245Z,44.55
2019-03-27T07:15:22.332Z,43.81
2019-03-27T07:17:53.617Z,41.30
2019-03-27T07:20:24.727Z,39.68
2019-03-27T07:22:55.659Z,39.68
2019-03-27T07:25:26.964Z,39.71
2019-03-27T07:27:58.511Z,36.45
2019-03-27T07:30:29.676Z,39.02
2019-03-27T07:33:00.877Z,35.29
2019-03-27T07:35:31.916Z,34.74
2019-03-27T07:38:03.033Z,35.48
2019-03-27T07:40:34.135Z,35.46
2019-03-27T07:43:05.389Z,35.15
2019-03-27T07:45:36.588Z,34.23
2019-03-27T07:48:07.685Z,34.91
2019-03-27T07:50:38.912Z,35.17
2019-03-27T07:53:09.951Z,35.17
2019-03-27T07:55:41.090Z,35.67
2019-03-27T07:58:12.630Z,36.77
2019-03-27T08:00:44.024Z,36.21
2019-03-27T08:03:28.938Z,35.98
2019-03-27T08:06:05.734Z,34.76
2019-03-27T08:08:37.146Z,34.71
2019-03-27T08:11:09.927Z,34.71
2019-03-27T08:13:40.990Z,34.48
2019-03-27T08:16:11.994Z,34.75
2019-03-27T08:18:43.060Z,34.53
2019-03-27T08:21:14.348Z,34.31
2019-03-27T08:23:45.607Z,34.18
2019-03-27T08:26:16.980Z,34.36
2019-03-27T08:28:48.487Z,34.36
2019-03-27T08:31:20.082Z,33.89
2019-03-27T08:33:51.266Z,34.34
2019-03-27T08:36:22.459Z,34.65
2019-03-27T08:38:53.770Z,34.64
2019-03-27T08:41:25.119Z,34.57
2019-03-27T08:43:57.905Z,35.18
2019-03-27T08:46:31.719Z,35.18
2019-03-27T08:49:03.395Z,34.55
2019-03-27T08:51:34.631Z,36.30
2019-03-27T08:54:06.252Z,36.60
2019-03-27T08:56:37.895Z,35.17
2019-03-27T08:59:09.576Z,34.18
2019-03-27T09:01:40.719Z,34.18
2019-03-27T09:04:12.043Z,35.23
2019-03-27T09:06:43.161Z,35.82
2019-03-27T09:09:14.233Z,35.82
2019-03-27T09:11:45.232Z,36.12
2019-03-27T09:14:16.353Z,34.18
2019-03-27T09:16:47.456Z,34.18
2019-03-27T09:19:18.531Z,32.96
2019-03-27T09:21:49.659Z,34.67
2019-03-27T09:24:21.001Z,33.74
2019-03-27T09:26:55.341Z,33.81
2019-03-27T09:29:26.439Z,32.11
2019-03-27T09:31:57.523Z,32.27
2019-03-27T09:34:28.854Z,32.74
2019-03-27T09:36:59.904Z,33.30
2019-03-27T09:39:31.159Z,34.42
2019-03-27T09:42:04.161Z,36.09
2019-03-27T09:44:36.257Z,36.59
2019-03-27T09:47:07.648Z,37.13
2019-03-27T09:49:49.604Z,37.97
2019-03-27T09:52:11.956Z,38.07
2019-03-27T09:54:43.285Z,38.28
2019-03-27T09:57:14.575Z,38.25
2019-03-27T09:59:47.107Z,38.05
2019-03-27T10:02:18.088Z,37.06
2019-03-27T10:04:49.132Z,37.62
2019-03-27T10:07:20.089Z,37.62
2019-03-27T10:09:51.115Z,37.20
2019-03-27T10:12:22.219Z,36.03
2019-03-27T10:14:53.163Z,36.03
2019-03-27T10:17:24.257Z,36.62
2019-03-27T10:20:03.347Z,36.62
2019-03-27T10:22:28.312Z,35.86
2019-03-27T10:24:59.383Z,34.76
2019-03-27T10:27:30.293Z,33.74
2019-03-27T10:30:01.274Z,34.19
2019-03-27T10:32:32.679Z,34.76
2019-03-27T10:35:04.189Z,35.68
2019-03-27T10:37:35.161Z,35.63
2019-03-27T10:40:07.854Z,34.75
2019-03-27T10:42:38.858Z,34.59
2019-03-27T10:45:10.975Z,34.85
2019-03-27T10:47:42.092Z,35.53
2019-03-27T10:50:17.802Z,34.58
2019-03-27T10:52:46.394Z,35.34
2019-03-27T10:55:18.648Z,34.64
2019-03-27T10:57:49.653Z,35.07
2019-03-27T11:00:20.768Z,33.95
2019-03-27T11:02:52.139Z,36.12
2019-03-27T11:05:26.485Z,35.70
2019-03-27T11:07:59.468Z,34.42
2019-03-27T11:10:30.700Z,34.62
2019-03-27T11:13:01.716Z,35.98
2019-03-27T11:15:32.751Z,34.58
2019-03-27T11:18:03.655Z,36.80
2019-03-27T11:20:34.968Z,36.71
2019-03-27T11:23:05.976Z,36.67
2019-03-27T11:25:36.919Z,38.16
2019-03-27T11:28:08.290Z,39.82
2019-03-27T11:30:39.470Z,38.56
2019-03-27T11:33:10.712Z,39.77
2019-03-27T11:35:41.831Z,37.95
2019-03-27T11:38:12.878Z,36.64
2019-03-27T11:40:44.452Z,36.65
2019-03-27T11:43:15.441Z,36.39
2019-03-27T11:45:48.736Z,37.69
2019-03-27T11:48:19.533Z,37.78
2019-03-27T11:50:50.802Z,37.96
2019-03-27T11:53:21.880Z,37.47
2019-03-27T11:55:53.062Z,38.33
2019-03-27T11:58:24.397Z,37.96
2019-03-27T12:00:55.684Z,37.07
2019-03-27T12:03:26.637Z,36.63
2019-03-27T12:05:57.599Z,37.37
2019-03-27T12:08:28.655Z,37.66
2019-03-27T12:10:59.770Z,38.95
2019-03-27T12:13:30.824Z,39.70
2019-03-27T12:16:01.982Z,38.84
2019-03-27T12:18:33.310Z,39.98
2019-03-27T12:21:04.472Z,41.23
2019-03-27T12:23:35.468Z,42.94
2019-03-27T12:26:06.653Z,46.75
2019-03-27T12:28:37.921Z,51.26
2019-03-27T12:31:09.136Z,54.56
2019-03-27T12:33:40.183Z,53.88
2019-03-27T12:36:11.322Z,57.76
2019-03-27T12:38:42.420Z,58.78
2019-03-27T12:41:13.727Z,60.25
2019-03-27T12:43:44.886Z,62.56
2019-03-27T12:46:16.174Z,63.81
2019-03-27T12:48:47.285Z,64.52
2019-03-27T12:51:18.573Z,64.19
2019-03-27T12:53:49.879Z,65.18
2019-03-27T12:56:21.054Z,68.21
2019-03-27T12:58:52.144Z,67.89
2019-03-27T13:01:23.396Z,69.05
2019-03-27T13:03:54.679Z,69.06
2019-03-27T13:06:26.007Z,70.37
2019-03-27T13:08:57.210Z,71.78
2019-03-27T13:11:28.394Z,71.89
2019-03-27T13:13:59.467Z,73.67
2019-03-27T13:16:30.589Z,76.02
2019-03-27T13:19:01.665Z,75.53
2019-03-27T13:21:32.909Z,75.71
2019-03-27T13:24:03.970Z,75.87
2019-03-27T13:26:36.633Z,77.70
2019-03-27T13:29:07.775Z,77.91
2019-03-27T13:31:39.909Z,77.69
2019-03-27T13:34:11.101Z,77.86
2019-03-27T13:36:44.010Z,79.00
2019-03-27T13:39:15.003Z,79.25
2019-03-27T13:41:46.110Z,78.55
2019-03-27T13:44:17.205Z,79.11
2019-03-27T13:46:48.532Z,78.94
2019-03-27T13:49:19.606Z,80.30
2019-03-27T13:51:51.702Z,80.58
2019-03-27T13:54:22.820Z,79.58
2019-03-27T13:56:54.126Z,81.17
2019-03-27T13:59:25.093Z,81.23
2019-03-27T14:01:56.469Z,79.95
2019-03-27T14:04:27.643Z,81.29
2019-03-27T14:06:58.800Z,79.47
2019-03-27T14:09:32.189Z,80.43
2019-03-27T14:12:03.343Z,79.95
2019-03-27T14:14:34.554Z,79.63
2019-03-27T14:17:05.710Z,81.56
2019-03-27T14:19:36.837Z,82.21
2019-03-27T14:22:07.970Z,80.64
2019-03-27T14:24:39.148Z,81.43
2019-03-27T14:27:10.329Z,80.85
2019-03-27T14:29:41.431Z,81.49
2019-03-27T14:32:12.679Z,81.54
2019-03-27T14:34:44.329Z,80.52
2019-03-27T14:37:15.538Z,81.92
2019-03-27T14:39:46.914Z,81.92
2019-03-27T14:42:18.058Z,83.53
2019-03-27T14:44:49.274Z,82.96
2019-03-27T14:47:20.502Z,83.66
2019-03-27T14:49:51.660Z,83.45
2019-03-27T14:52:23.044Z,83.18
2019-03-27T14:54:54.175Z,83.03
2019-03-27T14:57:25.508Z,82.86
2019-03-27T14:59:56.600Z,84.46
2019-03-27T15:02:27.926Z,83.05
2019-03-27T15:04:59.098Z,83.87
2019-03-27T15:07:30.369Z,83.77
2019-03-27T15:10:01.565Z,84.11
2019-03-27T15:12:34.726Z,85.12
2019-03-27T15:15:08.202Z,84.97
2019-03-27T15:17:40.527Z,85.96
2019-03-27T15:20:11.676Z,84.59
2019-03-27T15:22:42.898Z,85.11
2019-03-27T15:25:14.437Z,84.54
2019-03-27T15:27:46.950Z,85.59
2019-03-27T15:30:19.803Z,85.95
2019-03-27T15:32:50.999Z,86.51
2019-03-27T15:35:22.256Z,86.52
2019-03-27T15:37:53.539Z,87.19
2019-03-27T15:40:40.740Z,87.54
2019-03-27T15:43:12.093Z,87.61
2019-03-27T15:45:43.251Z,87.72
2019-03-27T15:48:16.224Z,87.93
2019-03-27T15:50:56.833Z,87.72
2019-03-27T15:53:20.879Z,87.28
2019-03-27T15:55:52.199Z,86.90
2019-03-27T15:58:23.438Z,86.95
2019-03-27T16:00:54.793Z,87.29
2019-03-27T16:03:26.046Z,87.04
2019-03-27T16:05:57.685Z,87.35
2019-03-27T16:08:29.043Z,87.35
2019-03-27T16:11:00.250Z,87.09
2019-03-27T16:13:32.574Z,86.71
2019-03-27T16:16:04.036Z,87.12
2019-03-27T16:18:36.758Z,86.31
2019-03-27T16:21:08.076Z,86.92
2019-03-27T16:23:43.903Z,86.63
2019-03-27T16:26:15.840Z,87.11
2019-03-27T16:28:48.227Z,86.92
2019-03-27T16:31:19.430Z,87.00
2019-03-27T16:33:55.157Z,87.20
2019-03-27T16:36:42.610Z,87.26
2019-03-27T16:39:13.801Z,86.53
2019-03-27T16:41:45.025Z,86.57
2019-03-27T16:44:16.474Z,87.05
2019-03-27T16:46:47.732Z,87.34
2019-03-27T16:49:18.991Z,86.85
2019-03-27T16:51:50.685Z,87.74
2019-03-27T16:54:22.161Z,88.35
2019-03-27T16:56:54.949Z,88.73
2019-03-27T16:59:26.187Z,88.56
2019-03-27T17:01:57.404Z,88.47
2019-03-27T17:04:28.813Z,89.09
2019-03-27T17:07:01.736Z,88.81
2019-03-27T17:09:33.015Z,88.84
2019-03-27T17:12:04.318Z,89.10
2019-03-27T17:14:35.593Z,89.01
2019-03-27T17:17:06.890Z,88.87
2019-03-27T17:19:38.175Z,88.77
2019-03-27T17:22:19.412Z,88.67
2019-03-27T17:24:42.501Z,88.57
2019-03-27T17:27:13.961Z,88.51
2019-03-27T17:29:45.273Z,89.07
2019-03-27T17:32:16.586Z,89.24
2019-03-27T17:34:47.812Z,88.75
2019-03-27T17:37:19.035Z,89.07
2019-03-27T17:39:50.281Z,89.24
2019-03-27T17:42:21.416Z,89.18
2019-03-27T17:45:00.687Z,89.31
2019-03-27T17:51:12.117Z,90.08
2019-03-27T17:53:45.346Z,90.25
2019-03-27T17:56:16.726Z,90.43
2019-03-27T17:58:47.906Z,90.20
2019-03-27T18:01:19.192Z,89.67
2019-03-27T18:03:50.352Z,89.91
2019-03-27T18:06:21.626Z,89.61
2019-03-27T18:08:54.298Z,89.61
2019-03-27T18:11:25.613Z,89.47
2019-03-27T18:13:58.796Z,89.59
2019-03-27T18:16:29.964Z,89.43
2019-03-27T18:19:01.138Z,89.56
2019-03-27T18:21:33.961Z,89.95
2019-03-27T18:24:05.064Z,89.53
2019-03-27T18:26:36.371Z,89.41
2019-03-27T18:29:07.588Z,89.24
2019-03-27T18:31:38.702Z,89.48
2019-03-27T18:34:09.910Z,89.68
2019-03-27T18:36:41.015Z,89.27
2019-03-27T18:39:13.014Z,89.40
2019-03-27T18:41:51.229Z,89.40
2019-03-27T18:44:45.722Z,89.37
2019-03-27T18:47:20.087Z,89.39
2019-03-27T18:49:53.566Z,89.13
2019-03-27T18:52:27.076Z,89.25
2019-03-27T18:54:58.424Z,89.50
2019-03-27T18:57:31.613Z,89.17
2019-03-27T19:00:26.252Z,88.54
2019-03-27T19:03:20.552Z,88.55
2019-03-27T19:05:51.864Z,88.21
2019-03-27T19:08:23.094Z,88.08
2019-03-27T19:10:54.447Z,88.98
2019-03-27T19:13:28.058Z,89.16
2019-03-27T19:15:59.274Z,89.16
2019-03-27T19:18:31.459Z,89.12
2019-03-27T19:21:02.698Z,88.66
2019-03-27T19:23:33.851Z,89.15
2019-03-27T19:26:05.558Z,89.41
2019-03-27T19:28:36.849Z,89.07
2019-03-27T19:31:07.903Z,89.32
2019-03-27T19:33:41.442Z,88.30
2019-03-27T19:36:12.480Z,88.28
2019-03-27T19:38:43.626Z,88.02
2019-03-27T19:41:17.624Z,88.74
2019-03-27T19:43:52.610Z,89.10
2019-03-27T19:46:23.883Z,88.91
2019-03-27T19:48:55.231Z,88.57
2019-03-27T19:51:30.896Z,88.68
2019-03-27T19:54:03.994Z,89.10
2019-03-27T19:56:35.443Z,89.38
2019-03-27T19:59:06.563Z,89.55
2019-03-27T20:01:39.388Z,89.75
2019-03-27T20:04:10.509Z,89.92
2019-03-27T20:06:41.727Z,89.89
2019-03-27T20:09:12.952Z,89.58
2019-03-27T20:11:44.303Z,89.52
2019-03-27T20:14:15.672Z,89.84
2019-03-27T20:16:52.295Z,89.27
2019-03-27T20:19:25.440Z,89.69
2019-03-27T20:21:57.236Z,89.65
2019-03-27T20:24:40.516Z,89.77
2019-03-27T20:27:18.051Z,89.80
2019-03-27T20:29:50.753Z,90.13
2019-03-27T20:32:22.308Z,89.78
2019-03-27T20:34:53.576Z,90.03
2019-03-27T20:37:24.823Z,90.46
2019-03-27T20:39:57.609Z,89.92
2019-03-27T20:42:28.764Z,89.55
2019-03-27T20:45:02.653Z,89.19
2019-03-27T20:47:36.623Z,89.38
2019-03-27T20:50:13.742Z,89.13
2019-03-27T20:52:47.994Z,88.75
2019-03-27T20:55:30.119Z,89.78
2019-03-27T20:57:54.676Z,89.23
2019-03-27T21:00:26.064Z,89.13
2019-03-27T21:02:58.179Z,89.48
2019-03-27T21:05:29.529Z,89.78
2019-03-27T21:08:00.836Z,89.89
2019-03-27T21:10:34.845Z,89.84
2019-03-27T21:13:10.152Z,90.17
2019-03-27T21:15:41.304Z,89.65
2019-03-27T21:18:15.456Z,89.32
2019-03-27T21:20:49.976Z,89.40
2019-03-27T21:23:22.687Z,89.53
2019-03-27T21:25:53.924Z,89.39
2019-03-27T21:28:26.094Z,89.32
2019-03-27T21:30:57.210Z,89.09
2019-03-27T21:33:30.008Z,88.42
2019-03-27T21:36:01.537Z,88.71
2019-03-27T21:38:34.044Z,88.55
2019-03-27T21:41:05.134Z,88.12
2019-03-27T21:43:36.383Z,88.36
2019-03-27T21:46:07.492Z,87.68
2019-03-27T21:48:38.755Z,86.96
2019-03-27T21:51:10.384Z,86.84
2019-03-27T21:53:42.294Z,86.53
2019-03-27T21:56:13.649Z,86.72
2019-03-27T21:58:44.884Z,86.83
2019-03-27T22:01:16.085Z,86.73
2019-03-27T22:03:47.163Z,87.01
2019-03-27T22:06:18.359Z,87.01
2019-03-27T22:08:49.635Z,87.62
2019-03-27T22:11:21.007Z,87.53
2019-03-27T22:13:52.398Z,87.64
2019-03-27T22:16:23.638Z,87.62
2019-03-27T22:18:54.701Z,87.48
2019-03-27T22:21:27.027Z,87.37
2019-03-27T22:23:58.114Z,87.58
2019-03-27T22:26:33.858Z,87.59
2019-03-27T22:29:05.298Z,87.96
2019-03-27T22:31:36.666Z,87.53
2019-03-27T22:34:07.907Z,87.60
2019-03-27T22:36:39.302Z,87.70
2019-03-27T22:39:10.522Z,87.80
2019-03-27T22:41:41.738Z,87.63
2019-03-27T22:44:12.877Z,87.96
2019-03-27T22:46:45.214Z,87.95
2019-03-27T22:49:19.171Z,88.10
2019-03-27T22:51:50.414Z,88.28
2019-03-27T22:54:21.515Z,88.19
2019-03-27T22:56:52.996Z,88.33
2019-03-27T22:59:23.969Z,88.51
2019-03-27T23:01:55.120Z,88.50
2019-03-27T23:04:26.255Z,88.43
2019-03-27T23:06:57.407Z,88.68
2019-03-27T23:09:28.521Z,88.57
2019-03-27T23:11:59.797Z,88.34
2019-03-27T23:14:31.080Z,88.24
2019-03-27T23:17:02.229Z,88.52
2019-03-27T23:19:33.367Z,88.10
2019-03-27T23:22:04.516Z,88.15
2019-03-27T23:24:35.612Z,87.25
2019-03-27T23:27:06.764Z,88.03
2019-03-27T23:29:39.124Z,87.71
2019-03-27T23:32:10.224Z,87.62
2019-03-27T23:34:41.419Z,87.60
2019-03-27T23:37:12.590Z,86.91
2019-03-27T23:39:43.899Z,87.07
2019-03-27T23:42:16.270Z,87.48
2019-03-27T23:44:47.632Z,87.65
2019-03-27T23:47:18.752Z,87.49
2019-03-27T23:49:49.987Z,87.39
2019-03-27T23:52:21.038Z,87.09
2019-03-27T23:54:52.222Z,87.47
2019-03-27T23:57:24.167Z,87.58
2019-03-27T23:59:55.381Z,88.01
